Terminal Aerodrome Forecast
Issued by NWS

Home | Current Version | Previous Version | Text Only | Print | Product List | Glossary On
Versions: 1 2 3 4 5 6 7 8 9 10 11 12 13 14 15 16 17 18 19 20 21 22 23 24 25 26 27 28
000
FTUS45 KSLC 081749
TAFLGU
TAF
KLGU 081749Z 0818/0918 VRB04KT P6SM VCSH SCT040 BKN080
     FM082100 VRB04KT P6SM -SN BKN030 OVC050
     FM090000 VRB04KT 1SM -SN BR BKN004 BKN007
     FM090700 15007KT 3SM -SN BKN008 OVC010
     FM091200 26007KT 4SM -SN BKN008 OVC020=

USA.gov is the U.S. government's official web portal to all federal, state and local government web resources and services.